sensor_id;sensor_type;location;lat;lon;timestamp;P1;durP1;ratioP1;P2;durP2;ratioP2
46288;SDS011;63105;46.158;14.604;2023-05-07T00:00:58;4.10;;;2.80;;
46288;SDS011;63105;46.158;14.604;2023-05-07T00:03:24;4.28;;;2.95;;
46288;SDS011;63105;46.158;14.604;2023-05-07T00:05:49;4.45;;;3.00;;
46288;SDS011;63105;46.158;14.604;2023-05-07T00:08:15;4.65;;;3.10;;
46288;SDS011;63105;46.158;14.604;2023-05-07T00:10:40;4.63;;;3.22;;
46288;SDS011;63105;46.158;14.604;2023-05-07T00:13:05;4.80;;;3.10;;
46288;SDS011;63105;46.158;14.604;2023-05-07T00:15:30;4.43;;;3.10;;
46288;SDS011;63105;46.158;14.604;2023-05-07T00:17:56;5.17;;;3.70;;
46288;SDS011;63105;46.158;14.604;2023-05-07T00:20:22;4.95;;;3.30;;
46288;SDS011;63105;46.158;14.604;2023-05-07T00:22:47;5.50;;;3.70;;
46288;SDS011;63105;46.158;14.604;2023-05-07T00:25:12;5.53;;;3.78;;
46288;SDS011;63105;46.158;14.604;2023-05-07T00:27:38;4.70;;;3.25;;
46288;SDS011;63105;46.158;14.604;2023-05-07T00:30:03;5.40;;;3.33;;
46288;SDS011;63105;46.158;14.604;2023-05-07T00:32:28;5.47;;;3.20;;
46288;SDS011;63105;46.158;14.604;2023-05-07T00:34:53;4.60;;;3.10;;
46288;SDS011;63105;46.158;14.604;2023-05-07T00:37:19;4.97;;;3.35;;
46288;SDS011;63105;46.158;14.604;2023-05-07T00:39:44;5.80;;;3.27;;
46288;SDS011;63105;46.158;14.604;2023-05-07T00:42:09;4.90;;;3.27;;
46288;SDS011;63105;46.158;14.604;2023-05-07T00:44:34;6.63;;;3.95;;
46288;SDS011;63105;46.158;14.604;2023-05-07T00:47:01;4.83;;;3.50;;
46288;SDS011;63105;46.158;14.604;2023-05-07T00:49:27;6.68;;;4.00;;
46288;SDS011;63105;46.158;14.604;2023-05-07T00:51:57;5.70;;;4.07;;
46288;SDS011;63105;46.158;14.604;2023-05-07T00:54:23;4.53;;;3.27;;
46288;SDS011;63105;46.158;14.604;2023-05-07T00:56:48;4.78;;;3.22;;
46288;SDS011;63105;46.158;14.604;2023-05-07T00:59:13;4.95;;;3.17;;
46288;SDS011;63105;46.158;14.604;2023-05-07T01:01:38;4.65;;;3.25;;
46288;SDS011;63105;46.158;14.604;2023-05-07T01:04:03;6.47;;;3.40;;
46288;SDS011;63105;46.158;14.604;2023-05-07T01:06:29;5.80;;;3.70;;
46288;SDS011;63105;46.158;14.604;2023-05-07T01:08:55;4.43;;;3.20;;
46288;SDS011;63105;46.158;14.604;2023-05-07T01:11:22;5.70;;;3.38;;
46288;SDS011;63105;46.158;14.604;2023-05-07T01:13:47;5.45;;;3.38;;
46288;SDS011;63105;46.158;14.604;2023-05-07T01:16:14;4.75;;;3.30;;
46288;SDS011;63105;46.158;14.604;2023-05-07T01:18:39;5.22;;;3.40;;
46288;SDS011;63105;46.158;14.604;2023-05-07T01:21:04;4.73;;;3.23;;
46288;SDS011;63105;46.158;14.604;2023-05-07T01:23:30;4.32;;;2.80;;
46288;SDS011;63105;46.158;14.604;2023-05-07T01:25:55;4.60;;;2.90;;
46288;SDS011;63105;46.158;14.604;2023-05-07T01:28:20;5.28;;;3.30;;
46288;SDS011;63105;46.158;14.604;2023-05-07T01:30:54;4.53;;;3.15;;
46288;SDS011;63105;46.158;14.604;2023-05-07T01:33:21;4.25;;;2.90;;
46288;SDS011;63105;46.158;14.604;2023-05-07T01:35:47;5.43;;;3.15;;
46288;SDS011;63105;46.158;14.604;2023-05-07T01:38:13;5.30;;;3.00;;
46288;SDS011;63105;46.158;14.604;2023-05-07T01:40:38;3.97;;;2.63;;
46288;SDS011;63105;46.158;14.604;2023-05-07T01:43:04;4.00;;;2.58;;
46288;SDS011;63105;46.158;14.604;2023-05-07T01:45:30;4.60;;;3.00;;
46288;SDS011;63105;46.158;14.604;2023-05-07T01:47:55;4.45;;;2.92;;
46288;SDS011;63105;46.158;14.604;2023-05-07T01:50:21;4.68;;;2.90;;
46288;SDS011;63105;46.158;14.604;2023-05-07T01:52:47;4.30;;;2.85;;
46288;SDS011;63105;46.158;14.604;2023-05-07T01:55:12;4.25;;;2.70;;
46288;SDS011;63105;46.158;14.604;2023-05-07T01:57:37;4.45;;;2.75;;
46288;SDS011;63105;46.158;14.604;2023-05-07T02:00:02;4.07;;;2.67;;
46288;SDS011;63105;46.158;14.604;2023-05-07T02:02:30;4.35;;;2.58;;
46288;SDS011;63105;46.158;14.604;2023-05-07T02:04:55;4.10;;;2.63;;
46288;SDS011;63105;46.158;14.604;2023-05-07T02:07:20;3.55;;;2.33;;
46288;SDS011;63105;46.158;14.604;2023-05-07T02:09:45;4.15;;;2.50;;
46288;SDS011;63105;46.158;14.604;2023-05-07T02:12:10;3.53;;;2.30;;
46288;SDS011;63105;46.158;14.604;2023-05-07T02:14:36;3.60;;;2.43;;
46288;SDS011;63105;46.158;14.604;2023-05-07T02:17:01;3.90;;;2.60;;
46288;SDS011;63105;46.158;14.604;2023-05-07T02:19:26;4.95;;;2.67;;
46288;SDS011;63105;46.158;14.604;2023-05-07T02:21:51;4.43;;;2.70;;
46288;SDS011;63105;46.158;14.604;2023-05-07T02:24:16;3.75;;;2.35;;
46288;SDS011;63105;46.158;14.604;2023-05-07T02:26:42;3.50;;;2.33;;
46288;SDS011;63105;46.158;14.604;2023-05-07T02:29:07;3.78;;;2.17;;
46288;SDS011;63105;46.158;14.604;2023-05-07T02:31:32;3.65;;;2.58;;
46288;SDS011;63105;46.158;14.604;2023-05-07T02:33:59;4.10;;;2.60;;
46288;SDS011;63105;46.158;14.604;2023-05-07T02:36:24;4.72;;;2.83;;
46288;SDS011;63105;46.158;14.604;2023-05-07T02:38:49;3.93;;;2.33;;
46288;SDS011;63105;46.158;14.604;2023-05-07T02:41:14;5.00;;;2.67;;
46288;SDS011;63105;46.158;14.604;2023-05-07T02:43:39;3.92;;;2.60;;
46288;SDS011;63105;46.158;14.604;2023-05-07T02:46:06;4.07;;;2.58;;
46288;SDS011;63105;46.158;14.604;2023-05-07T02:48:32;3.95;;;2.65;;
46288;SDS011;63105;46.158;14.604;2023-05-07T02:50:57;4.78;;;2.97;;
46288;SDS011;63105;46.158;14.604;2023-05-07T02:53:23;4.75;;;2.88;;
46288;SDS011;63105;46.158;14.604;2023-05-07T02:55:50;4.70;;;2.80;;
46288;SDS011;63105;46.158;14.604;2023-05-07T02:58:16;4.15;;;2.78;;
46288;SDS011;63105;46.158;14.604;2023-05-07T03:00:41;4.20;;;2.80;;
46288;SDS011;63105;46.158;14.604;2023-05-07T03:03:06;4.57;;;2.50;;
46288;SDS011;63105;46.158;14.604;2023-05-07T03:05:31;4.80;;;2.75;;
46288;SDS011;63105;46.158;14.604;2023-05-07T03:07:56;4.00;;;2.50;;
46288;SDS011;63105;46.158;14.604;2023-05-07T03:10:22;4.50;;;2.47;;
46288;SDS011;63105;46.158;14.604;2023-05-07T03:12:47;4.23;;;2.60;;
46288;SDS011;63105;46.158;14.604;2023-05-07T03:15:12;4.10;;;2.40;;
46288;SDS011;63105;46.158;14.604;2023-05-07T03:17:37;4.20;;;2.50;;
46288;SDS011;63105;46.158;14.604;2023-05-07T03:20:03;3.97;;;2.28;;
46288;SDS011;63105;46.158;14.604;2023-05-07T03:22:28;3.72;;;2.53;;
46288;SDS011;63105;46.158;14.604;2023-05-07T03:24:53;3.90;;;2.40;;
46288;SDS011;63105;46.158;14.604;2023-05-07T03:27:19;4.20;;;2.47;;
46288;SDS011;63105;46.158;14.604;2023-05-07T03:29:44;4.37;;;2.37;;
46288;SDS011;63105;46.158;14.604;2023-05-07T03:32:09;3.90;;;2.40;;
46288;SDS011;63105;46.158;14.604;2023-05-07T03:34:34;3.83;;;2.50;;
46288;SDS011;63105;46.158;14.604;2023-05-07T03:37:00;3.30;;;2.10;;
46288;SDS011;63105;46.158;14.604;2023-05-07T03:39:25;3.80;;;2.33;;
46288;SDS011;63105;46.158;14.604;2023-05-07T03:41:50;3.75;;;2.08;;
46288;SDS011;63105;46.158;14.604;2023-05-07T03:44:15;3.90;;;2.40;;
46288;SDS011;63105;46.158;14.604;2023-05-07T03:46:41;3.70;;;2.28;;
46288;SDS011;63105;46.158;14.604;2023-05-07T03:49:06;3.93;;;2.40;;
46288;SDS011;63105;46.158;14.604;2023-05-07T03:51:31;3.73;;;2.30;;
46288;SDS011;63105;46.158;14.604;2023-05-07T03:53:56;4.87;;;2.30;;
46288;SDS011;63105;46.158;14.604;2023-05-07T03:56:22;3.47;;;2.10;;
46288;SDS011;63105;46.158;14.604;2023-05-07T03:58:47;4.55;;;2.50;;
46288;SDS011;63105;46.158;14.604;2023-05-07T04:01:13;3.45;;;2.00;;
46288;SDS011;63105;46.158;14.604;2023-05-07T04:03:38;3.30;;;2.15;;
46288;SDS011;63105;46.158;14.604;2023-05-07T04:06:03;3.80;;;2.10;;
46288;SDS011;63105;46.158;14.604;2023-05-07T04:08:28;3.95;;;2.38;;
46288;SDS011;63105;46.158;14.604;2023-05-07T04:10:54;3.58;;;2.22;;
46288;SDS011;63105;46.158;14.604;2023-05-07T04:13:19;4.25;;;2.08;;
46288;SDS011;63105;46.158;14.604;2023-05-07T04:15:44;3.70;;;2.20;;
46288;SDS011;63105;46.158;14.604;2023-05-07T04:18:11;3.55;;;2.20;;
46288;SDS011;63105;46.158;14.604;2023-05-07T04:20:36;3.78;;;2.08;;
46288;SDS011;63105;46.158;14.604;2023-05-07T04:23:01;2.80;;;1.73;;
46288;SDS011;63105;46.158;14.604;2023-05-07T04:25:27;3.90;;;2.47;;
46288;SDS011;63105;46.158;14.604;2023-05-07T04:27:52;3.03;;;1.95;;
46288;SDS011;63105;46.158;14.604;2023-05-07T04:30:17;3.50;;;2.00;;
46288;SDS011;63105;46.158;14.604;2023-05-07T04:32:42;3.63;;;2.03;;
46288;SDS011;63105;46.158;14.604;2023-05-07T04:35:09;3.40;;;1.90;;
46288;SDS011;63105;46.158;14.604;2023-05-07T04:37:34;3.47;;;2.15;;
46288;SDS011;63105;46.158;14.604;2023-05-07T04:40:00;3.17;;;2.00;;
46288;SDS011;63105;46.158;14.604;2023-05-07T04:42:25;3.50;;;2.00;;
46288;SDS011;63105;46.158;14.604;2023-05-07T04:44:52;3.40;;;1.90;;
46288;SDS011;63105;46.158;14.604;2023-05-07T04:47:17;3.28;;;1.98;;
46288;SDS011;63105;46.158;14.604;2023-05-07T04:49:42;3.50;;;2.13;;
46288;SDS011;63105;46.158;14.604;2023-05-07T04:52:07;3.43;;;2.13;;
46288;SDS011;63105;46.158;14.604;2023-05-07T04:54:33;3.50;;;2.37;;
46288;SDS011;63105;46.158;14.604;2023-05-07T04:56:58;3.70;;;2.20;;
46288;SDS011;63105;46.158;14.604;2023-05-07T04:59:23;3.43;;;2.20;;
46288;SDS011;63105;46.158;14.604;2023-05-07T05:01:48;3.73;;;2.00;;
46288;SDS011;63105;46.158;14.604;2023-05-07T05:04:13;3.80;;;2.10;;
46288;SDS011;63105;46.158;14.604;2023-05-07T05:06:39;3.60;;;2.17;;
46288;SDS011;63105;46.158;14.604;2023-05-07T05:09:04;3.80;;;2.20;;
46288;SDS011;63105;46.158;14.604;2023-05-07T05:11:30;3.50;;;2.30;;
46288;SDS011;63105;46.158;14.604;2023-05-07T05:13:55;4.10;;;2.30;;
46288;SDS011;63105;46.158;14.604;2023-05-07T05:16:20;4.07;;;2.22;;
46288;SDS011;63105;46.158;14.604;2023-05-07T05:18:45;3.40;;;2.17;;
46288;SDS011;63105;46.158;14.604;2023-05-07T05:21:11;3.30;;;2.13;;
46288;SDS011;63105;46.158;14.604;2023-05-07T05:23:36;3.87;;;2.30;;
46288;SDS011;63105;46.158;14.604;2023-05-07T05:26:01;3.55;;;2.25;;
46288;SDS011;63105;46.158;14.604;2023-05-07T05:28:26;3.40;;;2.00;;
46288;SDS011;63105;46.158;14.604;2023-05-07T05:30:52;3.83;;;2.33;;
46288;SDS011;63105;46.158;14.604;2023-05-07T05:33:18;3.40;;;2.10;;
46288;SDS011;63105;46.158;14.604;2023-05-07T05:35:43;3.72;;;2.28;;
46288;SDS011;63105;46.158;14.604;2023-05-07T05:38:08;3.95;;;2.40;;
46288;SDS011;63105;46.158;14.604;2023-05-07T05:40:33;4.10;;;2.30;;
46288;SDS011;63105;46.158;14.604;2023-05-07T05:42:59;3.25;;;2.03;;
46288;SDS011;63105;46.158;14.604;2023-05-07T05:45:24;3.70;;;2.42;;
46288;SDS011;63105;46.158;14.604;2023-05-07T05:47:50;3.53;;;2.10;;
46288;SDS011;63105;46.158;14.604;2023-05-07T05:50:15;3.70;;;2.47;;
46288;SDS011;63105;46.158;14.604;2023-05-07T05:52:40;4.13;;;2.40;;
46288;SDS011;63105;46.158;14.604;2023-05-07T05:55:06;4.68;;;2.53;;
46288;SDS011;63105;46.158;14.604;2023-05-07T05:57:31;3.58;;;2.30;;
46288;SDS011;63105;46.158;14.604;2023-05-07T05:59:56;3.60;;;2.33;;
46288;SDS011;63105;46.158;14.604;2023-05-07T06:02:21;3.83;;;2.27;;
46288;SDS011;63105;46.158;14.604;2023-05-07T06:04:47;4.07;;;2.37;;
46288;SDS011;63105;46.158;14.604;2023-05-07T06:07:12;4.53;;;3.30;;
46288;SDS011;63105;46.158;14.604;2023-05-07T06:09:37;5.15;;;3.30;;
46288;SDS011;63105;46.158;14.604;2023-05-07T06:12:02;5.82;;;3.30;;
46288;SDS011;63105;46.158;14.604;2023-05-07T06:14:28;6.03;;;3.30;;
46288;SDS011;63105;46.158;14.604;2023-05-07T06:16:53;4.93;;;3.37;;
46288;SDS011;63105;46.158;14.604;2023-05-07T06:19:18;4.97;;;3.77;;
46288;SDS011;63105;46.158;14.604;2023-05-07T06:21:48;4.30;;;3.08;;
46288;SDS011;63105;46.158;14.604;2023-05-07T06:24:13;4.97;;;2.92;;
46288;SDS011;63105;46.158;14.604;2023-05-07T06:26:38;4.77;;;3.07;;
46288;SDS011;63105;46.158;14.604;2023-05-07T06:29:03;5.38;;;3.53;;
46288;SDS011;63105;46.158;14.604;2023-05-07T06:31:29;4.10;;;2.67;;
46288;SDS011;63105;46.158;14.604;2023-05-07T06:33:54;4.15;;;2.45;;
46288;SDS011;63105;46.158;14.604;2023-05-07T06:36:20;4.57;;;3.20;;
46288;SDS011;63105;46.158;14.604;2023-05-07T06:38:45;4.30;;;2.67;;
46288;SDS011;63105;46.158;14.604;2023-05-07T06:41:10;3.78;;;2.30;;
46288;SDS011;63105;46.158;14.604;2023-05-07T06:43:35;3.40;;;2.30;;
46288;SDS011;63105;46.158;14.604;2023-05-07T06:46:01;4.27;;;2.70;;
46288;SDS011;63105;46.158;14.604;2023-05-07T06:48:26;3.93;;;2.57;;
46288;SDS011;63105;46.158;14.604;2023-05-07T06:50:51;4.50;;;3.27;;
46288;SDS011;63105;46.158;14.604;2023-05-07T06:53:16;4.25;;;3.20;;
46288;SDS011;63105;46.158;14.604;2023-05-07T06:55:41;4.00;;;2.55;;
46288;SDS011;63105;46.158;14.604;2023-05-07T06:58:07;4.80;;;2.60;;
46288;SDS011;63105;46.158;14.604;2023-05-07T07:00:32;3.45;;;2.40;;
46288;SDS011;63105;46.158;14.604;2023-05-07T07:02:57;4.70;;;2.40;;
46288;SDS011;63105;46.158;14.604;2023-05-07T07:05:23;4.13;;;2.40;;
46288;SDS011;63105;46.158;14.604;2023-05-07T07:07:48;4.60;;;2.80;;
46288;SDS011;63105;46.158;14.604;2023-05-07T07:10:18;5.85;;;4.00;;
46288;SDS011;63105;46.158;14.604;2023-05-07T07:12:43;4.78;;;3.72;;
46288;SDS011;63105;46.158;14.604;2023-05-07T07:15:08;4.72;;;3.17;;
46288;SDS011;63105;46.158;14.604;2023-05-07T07:17:34;4.68;;;3.10;;
46288;SDS011;63105;46.158;14.604;2023-05-07T07:20:00;6.35;;;3.70;;
46288;SDS011;63105;46.158;14.604;2023-05-07T07:22:25;4.53;;;3.30;;
46288;SDS011;63105;46.158;14.604;2023-05-07T07:24:50;4.70;;;2.87;;
46288;SDS011;63105;46.158;14.604;2023-05-07T07:27:16;4.47;;;2.92;;
46288;SDS011;63105;46.158;14.604;2023-05-07T07:29:41;7.05;;;4.70;;
46288;SDS011;63105;46.158;14.604;2023-05-07T07:32:06;5.23;;;4.00;;
46288;SDS011;63105;46.158;14.604;2023-05-07T07:34:31;5.30;;;3.97;;
46288;SDS011;63105;46.158;14.604;2023-05-07T07:36:57;8.30;;;4.70;;
46288;SDS011;63105;46.158;14.604;2023-05-07T07:39:22;6.20;;;3.75;;
46288;SDS011;63105;46.158;14.604;2023-05-07T07:41:47;4.90;;;3.57;;
46288;SDS011;63105;46.158;14.604;2023-05-07T07:44:12;5.27;;;3.40;;
46288;SDS011;63105;46.158;14.604;2023-05-07T07:46:38;5.45;;;3.60;;
46288;SDS011;63105;46.158;14.604;2023-05-07T07:49:03;4.93;;;3.35;;
46288;SDS011;63105;46.158;14.604;2023-05-07T07:51:28;3.40;;;2.20;;
46288;SDS011;63105;46.158;14.604;2023-05-07T07:53:53;4.50;;;2.93;;
46288;SDS011;63105;46.158;14.604;2023-05-07T07:56:18;4.63;;;2.87;;
46288;SDS011;63105;46.158;14.604;2023-05-07T07:58:44;5.63;;;3.70;;
46288;SDS011;63105;46.158;14.604;2023-05-07T08:01:09;4.50;;;2.95;;
46288;SDS011;63105;46.158;14.604;2023-05-07T08:03:34;3.58;;;2.58;;
46288;SDS011;63105;46.158;14.604;2023-05-07T08:06:00;4.78;;;2.67;;
46288;SDS011;63105;46.158;14.604;2023-05-07T08:08:25;4.03;;;2.63;;
46288;SDS011;63105;46.158;14.604;2023-05-07T08:10:51;5.45;;;3.08;;
46288;SDS011;63105;46.158;14.604;2023-05-07T08:13:17;4.17;;;2.60;;
46288;SDS011;63105;46.158;14.604;2023-05-07T08:15:42;3.92;;;2.78;;
46288;SDS011;63105;46.158;14.604;2023-05-07T08:18:07;4.10;;;2.80;;
46288;SDS011;63105;46.158;14.604;2023-05-07T08:20:33;3.70;;;2.27;;
46288;SDS011;63105;46.158;14.604;2023-05-07T08:22:58;4.93;;;2.70;;
46288;SDS011;63105;46.158;14.604;2023-05-07T08:25:23;3.35;;;2.35;;
46288;SDS011;63105;46.158;14.604;2023-05-07T08:27:49;4.50;;;2.57;;
46288;SDS011;63105;46.158;14.604;2023-05-07T08:30:14;3.65;;;2.30;;
46288;SDS011;63105;46.158;14.604;2023-05-07T08:32:39;4.30;;;2.45;;
46288;SDS011;63105;46.158;14.604;2023-05-07T08:35:05;4.10;;;2.40;;
46288;SDS011;63105;46.158;14.604;2023-05-07T08:37:30;4.25;;;2.67;;
46288;SDS011;63105;46.158;14.604;2023-05-07T08:39:55;4.70;;;2.55;;
46288;SDS011;63105;46.158;14.604;2023-05-07T08:42:20;5.03;;;2.60;;
46288;SDS011;63105;46.158;14.604;2023-05-07T08:44:47;3.95;;;2.38;;
46288;SDS011;63105;46.158;14.604;2023-05-07T08:47:13;3.65;;;2.40;;
46288;SDS011;63105;46.158;14.604;2023-05-07T08:49:38;4.10;;;2.30;;
46288;SDS011;63105;46.158;14.604;2023-05-07T08:52:04;4.20;;;2.33;;
46288;SDS011;63105;46.158;14.604;2023-05-07T08:54:29;3.47;;;2.20;;
46288;SDS011;63105;46.158;14.604;2023-05-07T08:56:55;3.50;;;2.30;;
46288;SDS011;63105;46.158;14.604;2023-05-07T08:59:20;4.50;;;2.63;;
46288;SDS011;63105;46.158;14.604;2023-05-07T09:01:46;4.83;;;3.33;;
46288;SDS011;63105;46.158;14.604;2023-05-07T09:04:11;5.03;;;3.00;;
46288;SDS011;63105;46.158;14.604;2023-05-07T09:06:37;4.07;;;2.70;;
46288;SDS011;63105;46.158;14.604;2023-05-07T09:09:06;4.00;;;2.63;;
46288;SDS011;63105;46.158;14.604;2023-05-07T09:11:31;4.90;;;2.80;;
46288;SDS011;63105;46.158;14.604;2023-05-07T09:13:57;3.60;;;2.55;;
46288;SDS011;63105;46.158;14.604;2023-05-07T09:16:28;3.60;;;2.10;;
46288;SDS011;63105;46.158;14.604;2023-05-07T09:18:53;3.63;;;1.95;;
46288;SDS011;63105;46.158;14.604;2023-05-07T09:21:19;3.70;;;2.50;;
46288;SDS011;63105;46.158;14.604;2023-05-07T09:23:44;3.42;;;2.22;;
46288;SDS011;63105;46.158;14.604;2023-05-07T09:26:10;3.55;;;2.03;;
46288;SDS011;63105;46.158;14.604;2023-05-07T09:28:42;4.03;;;2.50;;
46288;SDS011;63105;46.158;14.604;2023-05-07T09:31:08;3.72;;;2.28;;
46288;SDS011;63105;46.158;14.604;2023-05-07T09:33:33;3.60;;;2.10;;
46288;SDS011;63105;46.158;14.604;2023-05-07T09:36:01;3.45;;;2.15;;
46288;SDS011;63105;46.158;14.604;2023-05-07T09:38:27;3.33;;;2.17;;
46288;SDS011;63105;46.158;14.604;2023-05-07T09:41:09;3.40;;;2.10;;
46288;SDS011;63105;46.158;14.604;2023-05-07T09:43:36;3.60;;;2.40;;
46288;SDS011;63105;46.158;14.604;2023-05-07T09:46:11;4.22;;;2.60;;
46288;SDS011;63105;46.158;14.604;2023-05-07T09:48:37;4.00;;;2.10;;
46288;SDS011;63105;46.158;14.604;2023-05-07T09:51:05;4.07;;;2.25;;
46288;SDS011;63105;46.158;14.604;2023-05-07T09:53:31;3.58;;;2.53;;
46288;SDS011;63105;46.158;14.604;2023-05-07T09:55:58;4.00;;;2.17;;
46288;SDS011;63105;46.158;14.604;2023-05-07T09:58:24;3.75;;;2.20;;
46288;SDS011;63105;46.158;14.604;2023-05-07T10:00:50;4.68;;;2.75;;
46288;SDS011;63105;46.158;14.604;2023-05-07T10:03:16;4.22;;;2.50;;
46288;SDS011;63105;46.158;14.604;2023-05-07T10:05:42;4.20;;;2.33;;
46288;SDS011;63105;46.158;14.604;2023-05-07T10:08:09;3.95;;;2.15;;
46288;SDS011;63105;46.158;14.604;2023-05-07T10:10:34;3.70;;;2.20;;
46288;SDS011;63105;46.158;14.604;2023-05-07T10:13:00;3.47;;;1.95;;
46288;SDS011;63105;46.158;14.604;2023-05-07T10:15:26;4.18;;;2.15;;
46288;SDS011;63105;46.158;14.604;2023-05-07T10:17:53;3.45;;;2.33;;
46288;SDS011;63105;46.158;14.604;2023-05-07T10:20:19;3.20;;;2.13;;
46288;SDS011;63105;46.158;14.604;2023-05-07T10:22:45;3.37;;;2.10;;
46288;SDS011;63105;46.158;14.604;2023-05-07T10:27:46;3.90;;;2.45;;
46288;SDS011;63105;46.158;14.604;2023-05-07T10:33:01;2.65;;;1.75;;
46288;SDS011;63105;46.158;14.604;2023-05-07T10:35:31;4.32;;;2.10;;
46288;SDS011;63105;46.158;14.604;2023-05-07T10:37:57;3.08;;;2.00;;
46288;SDS011;63105;46.158;14.604;2023-05-07T10:40:23;3.28;;;1.90;;
46288;SDS011;63105;46.158;14.604;2023-05-07T10:43:01;3.30;;;1.88;;
46288;SDS011;63105;46.158;14.604;2023-05-07T10:45:27;3.80;;;2.10;;
46288;SDS011;63105;46.158;14.604;2023-05-07T10:50:30;3.03;;;1.90;;
46288;SDS011;63105;46.158;14.604;2023-05-07T10:55:40;4.40;;;2.20;;
46288;SDS011;63105;46.158;14.604;2023-05-07T11:00:46;3.17;;;1.90;;
46288;SDS011;63105;46.158;14.604;2023-05-07T11:03:11;3.90;;;2.10;;
46288;SDS011;63105;46.158;14.604;2023-05-07T11:05:36;3.13;;;1.83;;
46288;SDS011;63105;46.158;14.604;2023-05-07T11:08:03;2.75;;;1.77;;
46288;SDS011;63105;46.158;14.604;2023-05-07T11:13:12;3.60;;;2.17;;
46288;SDS011;63105;46.158;14.604;2023-05-07T11:15:39;3.13;;;1.90;;
46288;SDS011;63105;46.158;14.604;2023-05-07T11:18:06;2.33;;;1.50;;
46288;SDS011;63105;46.158;14.604;2023-05-07T11:26:03;2.83;;;1.58;;
46288;SDS011;63105;46.158;14.604;2023-05-07T11:28:29;2.80;;;1.65;;
46288;SDS011;63105;46.158;14.604;2023-05-07T11:30:55;2.75;;;1.70;;
46288;SDS011;63105;46.158;14.604;2023-05-07T11:33:21;2.50;;;1.40;;
46288;SDS011;63105;46.158;14.604;2023-05-07T11:35:47;2.30;;;1.27;;
46288;SDS011;63105;46.158;14.604;2023-05-07T11:38:12;3.20;;;1.90;;
46288;SDS011;63105;46.158;14.604;2023-05-07T11:43:15;2.65;;;1.60;;
46288;SDS011;63105;46.158;14.604;2023-05-07T11:45:41;2.93;;;1.80;;
46288;SDS011;63105;46.158;14.604;2023-05-07T11:48:07;2.17;;;1.40;;
46288;SDS011;63105;46.158;14.604;2023-05-07T11:50:32;3.00;;;1.70;;
46288;SDS011;63105;46.158;14.604;2023-05-07T11:52:58;3.17;;;1.47;;
46288;SDS011;63105;46.158;14.604;2023-05-07T11:55:23;2.37;;;1.40;;
46288;SDS011;63105;46.158;14.604;2023-05-07T11:57:49;2.08;;;1.35;;
46288;SDS011;63105;46.158;14.604;2023-05-07T12:00:15;2.83;;;1.52;;
46288;SDS011;63105;46.158;14.604;2023-05-07T12:02:40;2.70;;;1.50;;
46288;SDS011;63105;46.158;14.604;2023-05-07T12:05:07;2.58;;;1.52;;
46288;SDS011;63105;46.158;14.604;2023-05-07T12:07:35;2.25;;;1.33;;
46288;SDS011;63105;46.158;14.604;2023-05-07T12:10:04;2.65;;;1.42;;
46288;SDS011;63105;46.158;14.604;2023-05-07T12:12:29;3.50;;;1.60;;
46288;SDS011;63105;46.158;14.604;2023-05-07T12:14:54;2.47;;;1.33;;
46288;SDS011;63105;46.158;14.604;2023-05-07T12:17:19;2.27;;;1.40;;
46288;SDS011;63105;46.158;14.604;2023-05-07T12:19:45;2.90;;;1.23;;
46288;SDS011;63105;46.158;14.604;2023-05-07T12:22:11;2.20;;;1.20;;
46288;SDS011;63105;46.158;14.604;2023-05-07T12:27:08;2.53;;;1.35;;
46288;SDS011;63105;46.158;14.604;2023-05-07T12:29:34;2.53;;;1.35;;
46288;SDS011;63105;46.158;14.604;2023-05-07T12:31:59;3.40;;;1.50;;
46288;SDS011;63105;46.158;14.604;2023-05-07T12:34:24;3.00;;;1.20;;
46288;SDS011;63105;46.158;14.604;2023-05-07T12:36:50;2.17;;;1.20;;
46288;SDS011;63105;46.158;14.604;2023-05-07T12:39:15;2.33;;;1.30;;
46288;SDS011;63105;46.158;14.604;2023-05-07T12:41:53;2.00;;;1.20;;
46288;SDS011;63105;46.158;14.604;2023-05-07T12:44:19;2.97;;;1.48;;
46288;SDS011;63105;46.158;14.604;2023-05-07T12:46:46;2.92;;;1.40;;
46288;SDS011;63105;46.158;14.604;2023-05-07T12:49:12;2.50;;;1.20;;
46288;SDS011;63105;46.158;14.604;2023-05-07T12:51:37;2.20;;;1.20;;
46288;SDS011;63105;46.158;14.604;2023-05-07T12:54:02;2.30;;;1.33;;
46288;SDS011;63105;46.158;14.604;2023-05-07T12:56:30;2.80;;;1.38;;
46288;SDS011;63105;46.158;14.604;2023-05-07T12:58:57;3.15;;;1.30;;
46288;SDS011;63105;46.158;14.604;2023-05-07T13:01:22;3.55;;;1.40;;
46288;SDS011;63105;46.158;14.604;2023-05-07T13:03:53;3.75;;;1.73;;
46288;SDS011;63105;46.158;14.604;2023-05-07T13:06:18;4.38;;;1.63;;
46288;SDS011;63105;46.158;14.604;2023-05-07T13:08:44;2.72;;;1.48;;
46288;SDS011;63105;46.158;14.604;2023-05-07T13:11:09;3.22;;;1.70;;
46288;SDS011;63105;46.158;14.604;2023-05-07T13:13:35;3.13;;;1.60;;
46288;SDS011;63105;46.158;14.604;2023-05-07T13:16:01;3.45;;;1.55;;
46288;SDS011;63105;46.158;14.604;2023-05-07T13:18:27;3.13;;;1.70;;
46288;SDS011;63105;46.158;14.604;2023-05-07T13:20:55;2.92;;;1.55;;
46288;SDS011;63105;46.158;14.604;2023-05-07T13:23:20;3.00;;;1.70;;
46288;SDS011;63105;46.158;14.604;2023-05-07T13:25:45;3.13;;;1.60;;
46288;SDS011;63105;46.158;14.604;2023-05-07T13:28:11;3.13;;;1.63;;
46288;SDS011;63105;46.158;14.604;2023-05-07T13:30:36;2.92;;;1.67;;
46288;SDS011;63105;46.158;14.604;2023-05-07T13:33:01;2.83;;;1.60;;
46288;SDS011;63105;46.158;14.604;2023-05-07T13:35:26;3.33;;;1.70;;
46288;SDS011;63105;46.158;14.604;2023-05-07T13:37:52;3.17;;;1.70;;
46288;SDS011;63105;46.158;14.604;2023-05-07T13:40:17;2.87;;;1.50;;
46288;SDS011;63105;46.158;14.604;2023-05-07T13:42:42;3.53;;;1.50;;
46288;SDS011;63105;46.158;14.604;2023-05-07T13:45:08;2.37;;;1.47;;
46288;SDS011;63105;46.158;14.604;2023-05-07T13:47:33;3.25;;;1.50;;
46288;SDS011;63105;46.158;14.604;2023-05-07T13:49:58;2.55;;;1.40;;
46288;SDS011;63105;46.158;14.604;2023-05-07T13:52:24;2.73;;;1.63;;
46288;SDS011;63105;46.158;14.604;2023-05-07T13:54:49;2.50;;;1.50;;
46288;SDS011;63105;46.158;14.604;2023-05-07T13:57:14;3.08;;;1.65;;
46288;SDS011;63105;46.158;14.604;2023-05-07T13:59:40;3.50;;;1.87;;
46288;SDS011;63105;46.158;14.604;2023-05-07T14:02:05;3.13;;;1.60;;
46288;SDS011;63105;46.158;14.604;2023-05-07T14:04:30;2.73;;;1.57;;
46288;SDS011;63105;46.158;14.604;2023-05-07T14:06:56;3.13;;;1.92;;
46288;SDS011;63105;46.158;14.604;2023-05-07T14:09:21;3.30;;;1.70;;
46288;SDS011;63105;46.158;14.604;2023-05-07T14:11:46;2.90;;;1.60;;
46288;SDS011;63105;46.158;14.604;2023-05-07T14:14:12;2.60;;;1.60;;
46288;SDS011;63105;46.158;14.604;2023-05-07T14:16:37;2.53;;;1.60;;
46288;SDS011;63105;46.158;14.604;2023-05-07T14:19:03;2.60;;;1.60;;
46288;SDS011;63105;46.158;14.604;2023-05-07T14:21:28;3.70;;;1.93;;
46288;SDS011;63105;46.158;14.604;2023-05-07T14:23:53;3.40;;;1.80;;
46288;SDS011;63105;46.158;14.604;2023-05-07T14:26:18;2.80;;;1.87;;
46288;SDS011;63105;46.158;14.604;2023-05-07T14:28:44;3.30;;;1.83;;
46288;SDS011;63105;46.158;14.604;2023-05-07T14:31:11;3.13;;;1.83;;
46288;SDS011;63105;46.158;14.604;2023-05-07T14:33:36;3.05;;;2.15;;
46288;SDS011;63105;46.158;14.604;2023-05-07T14:36:01;3.37;;;1.93;;
46288;SDS011;63105;46.158;14.604;2023-05-07T14:38:27;3.25;;;2.10;;
46288;SDS011;63105;46.158;14.604;2023-05-07T14:40:52;3.70;;;2.50;;
46288;SDS011;63105;46.158;14.604;2023-05-07T14:43:20;4.05;;;2.03;;
46288;SDS011;63105;46.158;14.604;2023-05-07T14:45:45;4.03;;;2.10;;
46288;SDS011;63105;46.158;14.604;2023-05-07T14:48:11;3.83;;;2.20;;
46288;SDS011;63105;46.158;14.604;2023-05-07T14:50:39;4.05;;;2.25;;